Airfield :
LOGIN :

Register | Disclaimer

   EN    FR    IT 

 










Legend :    VFR   Marginal VFR   IFR   Intensive IFR   Very Intensive IFR
Visi :
Ceiling :
>= 8 km
>= 3000ft
5 to 8 km
1000 to 3000 ft
1500m to 5 km
500 to 1000 ft
800 to 1500m
200 to 500 ft
< 800m
< 200 ft
Symbols :   Thunderstorms  Fog  Heavy snow  Heavy precipitations  Wind > 20 kt
SIGMETs :     Misc.  Thunderstorms  Icing  Turbulence  Mountain Waves  Volcanic Ashes







- Airport Elevation : 404 ft
- IATA code : WRO


EPWR - Wroclaw

CURRENT METAR :
  • 161730Z VRB02KT CAVOK 25/11 Q1017

EXPIRED METARs :
  • 161700Z 12005KT CAVOK 26/10 Q1017
  • 161630Z 16004KT CAVOK 26/10 Q1017
  • 161600Z 15003KT CAVOK 25/10 Q1017
  • 161530Z 12003KT 050V190 CAVOK 26/09 Q1017
  • 161500Z 11006KT 050V140 CAVOK 26/09 Q1018
  • 161430Z VRB02KT CAVOK 27/10 Q1018

TAF TAF EPWR
Valid from the 16 at 18:00 until the 17 at 18:00 UTC


161730Z 1618/1718 13005KT CAVOK
No reported NOTAMs for that airfield.



MET'MAP, your aeronautical weather chart ! - Copyright ORBIFLY December 2007 - Disclaimer

ORBIFLY MET'MAP TEAM :

Programming & Development : Alexandra Zaïnal
Concept & Development : Baudouin d'Aumeries
Co-Development & Prog : Marc-Olivier Méhu
Technical & hardware support : Manuel Goepfert

Contact : metmap@orbifly.com




SOURCES & CREDITS :

   NOAA